createdAt,value
2018-03-31T00:00:13.262Z,3.93
2018-03-31T00:02:40.352Z,4.00
2018-03-31T00:05:07.461Z,4.87
2018-03-31T00:07:34.580Z,4.53
2018-03-31T00:10:01.696Z,4.37
2018-03-31T00:12:28.810Z,3.60
2018-03-31T00:14:55.928Z,4.07
2018-03-31T00:17:23.043Z,3.53
2018-03-31T00:19:50.171Z,3.27
2018-03-31T00:22:23.163Z,2.97
2018-03-31T00:24:50.282Z,2.90
2018-03-31T00:27:17.379Z,2.97
2018-03-31T00:29:44.535Z,2.47
2018-03-31T00:32:11.638Z,3.00
2018-03-31T00:34:38.779Z,2.93
2018-03-31T00:37:05.869Z,3.40
2018-03-31T00:39:32.982Z,3.20
2018-03-31T00:42:00.095Z,3.30
2018-03-31T00:44:27.235Z,3.40
2018-03-31T00:46:54.326Z,3.60
2018-03-31T00:49:21.476Z,3.10
2018-03-31T00:51:48.582Z,3.20
2018-03-31T00:54:15.735Z,2.87
2018-03-31T00:56:42.841Z,3.10
2018-03-31T00:59:09.986Z,3.07
2018-03-31T01:01:37.102Z,2.57
2018-03-31T01:04:04.252Z,3.17
2018-03-31T01:06:31.362Z,4.83
2018-03-31T01:08:58.477Z,3.77
2018-03-31T01:11:25.565Z,3.97
2018-03-31T01:13:52.715Z,3.73
2018-03-31T01:16:19.851Z,3.90
2018-03-31T01:18:46.999Z,4.30
2018-03-31T01:21:14.123Z,4.00
2018-03-31T01:23:41.235Z,3.60
2018-03-31T01:26:08.388Z,3.37
2018-03-31T01:28:35.535Z,4.00
2018-03-31T01:31:02.659Z,3.70
2018-03-31T01:33:29.781Z,3.43
2018-03-31T01:35:56.924Z,4.30
2018-03-31T01:38:24.049Z,4.83
2018-03-31T01:40:51.162Z,3.90
2018-03-31T01:43:18.273Z,3.63
2018-03-31T01:45:45.428Z,3.53
2018-03-31T01:48:12.546Z,3.50
2018-03-31T01:50:39.685Z,3.67
2018-03-31T01:53:06.802Z,3.77
2018-03-31T01:55:33.945Z,3.50
2018-03-31T01:58:01.072Z,4.00
2018-03-31T02:00:28.221Z,3.63
2018-03-31T02:02:55.395Z,3.03
2018-03-31T02:05:22.503Z,3.63
2018-03-31T02:07:49.614Z,3.40
2018-03-31T02:10:16.747Z,3.60
2018-03-31T02:12:43.863Z,3.70
2018-03-31T02:15:11.013Z,3.80
2018-03-31T02:17:38.138Z,3.83
2018-03-31T02:20:05.276Z,6.73
2018-03-31T02:22:32.388Z,8.00
2018-03-31T02:24:59.527Z,11.50
2018-03-31T02:27:26.651Z,6.70
2018-03-31T02:29:53.787Z,4.87
2018-03-31T02:32:20.871Z,4.03
2018-03-31T02:34:48.021Z,3.40
2018-03-31T02:37:15.143Z,2.93
2018-03-31T02:39:42.290Z,3.20
2018-03-31T02:42:09.433Z,2.80
2018-03-31T02:44:36.577Z,3.07
2018-03-31T02:47:03.675Z,3.40
2018-03-31T02:49:30.828Z,3.30
2018-03-31T02:51:57.925Z,2.33
2018-03-31T02:54:25.104Z,2.23
2018-03-31T02:56:52.231Z,2.37
2018-03-31T02:59:19.338Z,2.10
2018-03-31T03:01:46.496Z,2.23
2018-03-31T03:04:13.585Z,1.50
2018-03-31T03:06:40.721Z,1.50
2018-03-31T03:09:07.807Z,1.47
2018-03-31T03:11:34.927Z,1.50
2018-03-31T03:14:02.122Z,1.80
2018-03-31T03:16:29.037Z,1.30
2018-03-31T03:18:55.922Z,1.33
2018-03-31T03:21:22.848Z,2.00
2018-03-31T03:23:49.732Z,2.10
2018-03-31T03:26:16.646Z,1.80
2018-03-31T03:28:43.530Z,1.80
2018-03-31T03:31:10.442Z,2.10
2018-03-31T03:33:37.334Z,1.70
2018-03-31T03:36:04.246Z,1.80
2018-03-31T03:38:31.125Z,1.93
2018-03-31T03:40:58.036Z,2.10
2018-03-31T03:43:24.921Z,2.17
2018-03-31T03:45:51.844Z,2.70
2018-03-31T03:48:18.723Z,2.60
2018-03-31T03:50:45.635Z,2.17
2018-03-31T03:53:12.513Z,2.67
2018-03-31T03:55:39.434Z,2.03
2018-03-31T03:58:06.326Z,2.20
2018-03-31T04:00:33.242Z,1.63
2018-03-31T04:03:00.131Z,2.07
2018-03-31T04:05:27.038Z,2.20
2018-03-31T04:07:53.934Z,2.30
2018-03-31T04:10:20.838Z,2.53
2018-03-31T04:12:47.726Z,1.73
2018-03-31T04:15:14.651Z,2.60
2018-03-31T04:17:41.530Z,2.60
2018-03-31T04:20:08.418Z,2.00
2018-03-31T04:22:35.326Z,2.43
2018-03-31T04:25:02.208Z,2.20
2018-03-31T04:27:29.119Z,2.50
2018-03-31T04:29:56.002Z,2.60
2018-03-31T04:32:22.920Z,3.70
2018-03-31T04:34:49.799Z,3.00
2018-03-31T04:37:16.713Z,3.10
2018-03-31T04:39:43.603Z,3.53
2018-03-31T04:42:10.524Z,4.87
2018-03-31T04:44:37.412Z,3.50
2018-03-31T04:47:04.387Z,3.53
2018-03-31T04:49:31.271Z,3.10
2018-03-31T04:51:58.182Z,2.80
2018-03-31T04:54:25.062Z,3.50
2018-03-31T04:56:52.010Z,3.50
2018-03-31T04:59:18.910Z,3.60
2018-03-31T05:01:45.819Z,4.80
2018-03-31T05:04:12.706Z,4.40
2018-03-31T05:06:39.615Z,5.00
2018-03-31T05:09:06.498Z,4.67
2018-03-31T05:11:33.411Z,4.23
2018-03-31T05:14:00.294Z,4.10
2018-03-31T05:16:27.204Z,4.10
2018-03-31T05:18:54.082Z,4.27
2018-03-31T05:21:20.985Z,4.47
2018-03-31T05:23:47.869Z,4.47
2018-03-31T05:26:14.779Z,4.43
2018-03-31T05:28:41.670Z,4.60
2018-03-31T05:31:08.596Z,4.20
2018-03-31T05:33:35.478Z,3.23
2018-03-31T05:36:02.398Z,4.07
2018-03-31T05:38:29.286Z,5.03
2018-03-31T05:40:56.207Z,4.70
2018-03-31T05:43:23.094Z,4.90
2018-03-31T05:45:50.010Z,4.17
2018-03-31T05:48:16.947Z,4.13
2018-03-31T05:50:43.836Z,3.90
2018-03-31T05:53:10.762Z,5.03
2018-03-31T05:55:37.678Z,4.63
2018-03-31T05:58:04.591Z,4.97
2018-03-31T06:00:31.475Z,4.87
2018-03-31T06:02:58.458Z,8.53
2018-03-31T06:05:25.411Z,9.00
2018-03-31T06:07:52.357Z,5.20
2018-03-31T06:10:19.296Z,6.33
2018-03-31T06:12:46.255Z,4.97
2018-03-31T06:15:13.245Z,6.07
2018-03-31T06:17:41.307Z,6.50
2018-03-31T06:20:08.220Z,5.67
2018-03-31T06:22:35.989Z,6.30
2018-03-31T06:25:02.951Z,6.77
2018-03-31T06:27:29.963Z,7.67
2018-03-31T06:29:56.976Z,7.70
2018-03-31T06:32:23.926Z,6.13
2018-03-31T06:34:50.818Z,7.20
2018-03-31T06:37:17.731Z,6.90
2018-03-31T06:39:44.611Z,6.30
2018-03-31T06:42:11.527Z,7.87
2018-03-31T06:44:38.442Z,7.30
2018-03-31T06:47:05.351Z,7.33
2018-03-31T06:49:32.337Z,7.33
2018-03-31T06:51:59.366Z,7.73
2018-03-31T06:54:26.293Z,7.93
2018-03-31T06:56:53.287Z,7.50
2018-03-31T06:59:20.196Z,7.53
2018-03-31T07:01:47.221Z,7.20
2018-03-31T07:04:14.177Z,7.60
2018-03-31T07:06:41.178Z,7.30
2018-03-31T07:09:08.077Z,7.50
2018-03-31T07:11:34.973Z,7.90
2018-03-31T07:14:01.892Z,8.00
2018-03-31T07:16:28.774Z,7.13
2018-03-31T07:18:55.694Z,9.07
2018-03-31T07:21:22.586Z,7.20
2018-03-31T07:23:49.504Z,8.00
2018-03-31T07:26:16.390Z,7.40
2018-03-31T07:28:43.299Z,7.30
2018-03-31T07:31:10.184Z,7.43
2018-03-31T07:33:37.103Z,8.37
2018-03-31T07:36:03.992Z,8.63
2018-03-31T07:38:30.903Z,8.77
2018-03-31T07:40:57.786Z,6.90
2018-03-31T07:43:24.704Z,8.30
2018-03-31T07:45:51.600Z,9.30
2018-03-31T07:48:18.509Z,8.57
2018-03-31T07:50:45.395Z,9.63
2018-03-31T07:53:12.311Z,8.40
2018-03-31T07:55:39.249Z,7.70
2018-03-31T07:58:06.155Z,8.50
2018-03-31T08:00:33.037Z,8.47
2018-03-31T08:02:59.949Z,8.37
2018-03-31T08:05:26.834Z,6.73
2018-03-31T08:07:53.742Z,7.07
2018-03-31T08:10:20.633Z,7.83
2018-03-31T08:12:47.602Z,8.10
2018-03-31T08:15:14.498Z,7.90
2018-03-31T08:17:41.451Z,7.43
2018-03-31T08:20:08.329Z,6.57
2018-03-31T08:22:35.247Z,5.70
2018-03-31T08:25:02.155Z,6.00
2018-03-31T08:27:29.070Z,6.33
2018-03-31T08:29:55.954Z,6.00
2018-03-31T08:32:22.861Z,6.10
2018-03-31T08:34:49.746Z,6.20
2018-03-31T08:37:16.635Z,5.80
2018-03-31T08:39:43.537Z,5.90
2018-03-31T08:42:10.418Z,6.43
2018-03-31T08:44:37.327Z,5.77
2018-03-31T08:47:04.298Z,6.17
2018-03-31T08:49:31.199Z,5.67
2018-03-31T08:51:58.078Z,6.47
2018-03-31T08:54:24.981Z,5.47
2018-03-31T08:56:51.875Z,5.77
2018-03-31T08:59:18.789Z,6.60
2018-03-31T09:01:45.671Z,6.30
2018-03-31T09:04:12.571Z,5.60
2018-03-31T09:06:39.455Z,5.90
2018-03-31T09:09:06.398Z,5.77
2018-03-31T09:11:33.325Z,5.57
2018-03-31T09:14:00.246Z,6.07
2018-03-31T09:16:27.131Z,5.43
2018-03-31T09:18:54.045Z,6.20
2018-03-31T09:21:20.929Z,5.20
2018-03-31T09:23:47.912Z,5.20
2018-03-31T09:26:14.807Z,6.10
2018-03-31T09:28:41.719Z,4.90
2018-03-31T09:31:08.810Z,4.93
2018-03-31T09:33:35.719Z,5.20
2018-03-31T09:36:02.598Z,5.63
2018-03-31T09:38:29.510Z,5.30
2018-03-31T09:40:56.394Z,5.43
2018-03-31T09:43:23.317Z,5.03
2018-03-31T09:45:50.199Z,4.13
2018-03-31T09:48:17.105Z,4.17
2018-03-31T09:50:43.985Z,4.80
2018-03-31T09:53:10.899Z,4.90
2018-03-31T09:55:37.773Z,4.63
2018-03-31T09:58:04.693Z,4.63
2018-03-31T10:00:35.467Z,5.20
2018-03-31T10:03:02.465Z,4.97
2018-03-31T10:05:29.477Z,3.87
2018-03-31T10:07:56.365Z,4.70
2018-03-31T10:10:23.276Z,3.77
2018-03-31T10:12:50.164Z,3.90
2018-03-31T10:15:17.097Z,3.73
2018-03-31T10:17:43.976Z,4.90
2018-03-31T10:20:10.881Z,5.20
2018-03-31T10:22:37.793Z,5.00
2018-03-31T10:25:04.717Z,4.87
2018-03-31T10:27:31.612Z,4.87
2018-03-31T10:29:58.517Z,4.70
2018-03-31T10:32:25.425Z,4.70
2018-03-31T10:34:52.343Z,5.10
2018-03-31T10:37:19.231Z,4.50
2018-03-31T10:39:46.151Z,3.63
2018-03-31T10:42:13.032Z,4.37
2018-03-31T10:44:39.940Z,5.07
2018-03-31T10:47:06.828Z,4.00
2018-03-31T10:49:33.751Z,3.70
2018-03-31T10:52:00.639Z,4.53
2018-03-31T10:54:27.554Z,4.63
2018-03-31T10:56:54.442Z,5.10
2018-03-31T10:59:21.353Z,4.37
2018-03-31T11:01:48.233Z,4.00
2018-03-31T11:04:15.152Z,5.20
2018-03-31T11:06:42.050Z,4.60
2018-03-31T11:09:08.958Z,4.87
2018-03-31T11:11:35.905Z,4.80
2018-03-31T11:14:02.823Z,3.40
2018-03-31T11:16:29.754Z,3.93
2018-03-31T11:18:56.666Z,3.40
2018-03-31T11:21:23.563Z,4.30
2018-03-31T11:23:50.474Z,3.60
2018-03-31T11:26:17.356Z,3.37
2018-03-31T11:28:44.243Z,3.73
2018-03-31T11:31:11.156Z,4.13
2018-03-31T11:33:38.044Z,4.10
2018-03-31T11:36:04.958Z,3.83
2018-03-31T11:38:31.880Z,3.27
2018-03-31T11:40:58.787Z,3.07
2018-03-31T11:43:25.679Z,2.67
2018-03-31T11:45:52.601Z,2.43
2018-03-31T11:48:19.487Z,3.50
2018-03-31T11:50:46.405Z,3.47
2018-03-31T11:53:13.304Z,3.20
2018-03-31T11:55:40.229Z,3.30
2018-03-31T11:58:07.135Z,3.30
2018-03-31T12:00:34.043Z,3.40
2018-03-31T12:03:00.963Z,2.83
2018-03-31T12:05:27.938Z,2.83
2018-03-31T12:07:54.878Z,3.07
2018-03-31T12:10:21.831Z,3.27
2018-03-31T12:12:48.720Z,3.83
2018-03-31T12:15:15.643Z,3.53
2018-03-31T12:17:42.550Z,3.50
2018-03-31T12:20:09.466Z,2.97
2018-03-31T12:22:36.368Z,3.17
2018-03-31T12:25:03.275Z,3.17
2018-03-31T12:27:30.548Z,3.83
2018-03-31T12:29:57.538Z,3.40
2018-03-31T12:32:24.423Z,3.63
2018-03-31T12:34:51.332Z,3.63
2018-03-31T12:37:18.218Z,3.43
2018-03-31T12:39:45.146Z,2.80
2018-03-31T12:42:12.372Z,2.60
2018-03-31T12:44:39.282Z,3.90
2018-03-31T12:47:06.166Z,2.43
2018-03-31T12:49:33.086Z,3.00
2018-03-31T12:52:02.679Z,3.00
2018-03-31T12:54:29.562Z,2.97
2018-03-31T12:56:56.516Z,3.20
2018-03-31T12:59:23.412Z,2.83
2018-03-31T13:01:50.322Z,2.67
2018-03-31T13:04:17.215Z,3.03
2018-03-31T13:06:44.149Z,2.67
2018-03-31T13:09:11.151Z,2.70
2018-03-31T13:11:38.100Z,2.40
2018-03-31T13:14:04.995Z,2.50
2018-03-31T13:16:31.915Z,2.90
2018-03-31T13:18:58.796Z,3.13
2018-03-31T13:21:25.707Z,2.87
2018-03-31T13:23:52.633Z,3.30
2018-03-31T13:26:19.541Z,3.20
2018-03-31T13:28:46.422Z,2.90
2018-03-31T13:31:13.347Z,3.00
2018-03-31T13:33:40.236Z,3.20
2018-03-31T13:36:07.147Z,3.00
2018-03-31T13:38:34.035Z,3.20
2018-03-31T13:41:00.954Z,2.83
2018-03-31T13:43:27.883Z,3.20
2018-03-31T13:45:54.795Z,3.23
2018-03-31T13:48:21.683Z,2.77
2018-03-31T13:50:48.669Z,2.97
2018-03-31T13:53:15.549Z,3.10
2018-03-31T13:55:42.462Z,2.77
2018-03-31T13:58:09.349Z,2.30
2018-03-31T14:00:36.258Z,3.00
2018-03-31T14:03:03.146Z,2.20
2018-03-31T14:05:30.062Z,2.57
2018-03-31T14:07:56.977Z,2.90
2018-03-31T14:10:23.886Z,2.33
2018-03-31T14:12:50.768Z,2.73
2018-03-31T14:15:17.678Z,2.60
2018-03-31T14:17:44.569Z,3.57
2018-03-31T14:20:11.454Z,2.63
2018-03-31T14:22:38.402Z,2.33
2018-03-31T14:25:05.286Z,2.37
2018-03-31T14:27:32.202Z,2.60
2018-03-31T14:29:59.095Z,2.20
2018-03-31T14:32:26.016Z,2.63
2018-03-31T14:37:28.751Z,2.50
2018-03-31T14:39:55.632Z,2.70
2018-03-31T14:42:22.542Z,2.40
2018-03-31T14:44:49.423Z,2.87
2018-03-31T14:47:16.338Z,2.37
2018-03-31T14:49:43.241Z,2.47
2018-03-31T14:52:10.163Z,2.03
2018-03-31T14:54:37.046Z,3.07
2018-03-31T14:57:03.951Z,2.87
2018-03-31T14:59:30.859Z,2.97
2018-03-31T15:01:57.770Z,2.30
2018-03-31T15:04:24.656Z,2.67
2018-03-31T15:06:51.571Z,3.30
2018-03-31T15:09:18.456Z,2.60
2018-03-31T15:11:45.375Z,2.20
2018-03-31T15:14:12.256Z,2.87
2018-03-31T15:16:39.179Z,2.77
2018-03-31T15:19:06.054Z,2.50
2018-03-31T15:21:32.971Z,2.70
2018-03-31T15:23:59.860Z,2.60
2018-03-31T15:26:26.772Z,2.97
2018-03-31T15:28:53.662Z,2.90
2018-03-31T15:31:20.599Z,3.13
2018-03-31T15:33:49.029Z,2.57
2018-03-31T15:36:15.947Z,3.00
2018-03-31T15:38:42.967Z,1.87
2018-03-31T15:41:09.888Z,3.17
2018-03-31T15:43:36.820Z,2.53
2018-03-31T15:46:03.731Z,2.73
2018-03-31T15:48:30.624Z,3.00
2018-03-31T15:50:57.532Z,2.40
2018-03-31T15:53:24.444Z,2.13
2018-03-31T15:55:51.327Z,2.57
2018-03-31T15:58:18.235Z,2.53
2018-03-31T16:00:45.124Z,2.47
2018-03-31T16:03:12.033Z,2.17
2018-03-31T16:05:38.918Z,2.30
2018-03-31T16:08:05.833Z,1.93
2018-03-31T16:10:32.719Z,1.60
2018-03-31T16:12:59.656Z,2.07
2018-03-31T16:15:26.556Z,2.20
2018-03-31T16:17:53.510Z,1.47
2018-03-31T16:20:20.393Z,1.90
2018-03-31T16:22:47.299Z,1.97
2018-03-31T16:25:14.198Z,2.30
2018-03-31T16:27:41.113Z,1.87
2018-03-31T16:30:08.157Z,1.87
2018-03-31T16:32:35.071Z,1.73
2018-03-31T16:35:01.955Z,2.17
2018-03-31T16:37:28.888Z,2.10
2018-03-31T16:39:55.779Z,2.37
2018-03-31T16:42:22.698Z,2.07
2018-03-31T16:44:49.591Z,2.17
2018-03-31T16:47:16.517Z,1.90
2018-03-31T16:49:43.415Z,1.93
2018-03-31T16:52:10.331Z,1.80
2018-03-31T16:54:37.305Z,2.03
2018-03-31T16:57:04.219Z,2.93
2018-03-31T16:59:31.151Z,2.80
2018-03-31T17:01:58.042Z,2.33
2018-03-31T17:04:24.927Z,2.63
2018-03-31T17:06:51.841Z,2.23
2018-03-31T17:09:18.744Z,2.30
2018-03-31T17:11:45.656Z,2.17
2018-03-31T17:14:12.564Z,2.77
2018-03-31T17:16:39.451Z,3.00
2018-03-31T17:19:06.356Z,2.33
2018-03-31T17:21:33.286Z,2.70
2018-03-31T17:24:00.205Z,2.20
2018-03-31T17:26:27.097Z,2.90
2018-03-31T17:28:54.011Z,3.00
2018-03-31T17:31:20.894Z,3.30
2018-03-31T17:33:47.808Z,3.27
2018-03-31T17:36:14.700Z,3.30
2018-03-31T17:38:41.631Z,3.70
2018-03-31T17:41:08.514Z,3.70
2018-03-31T17:43:35.440Z,6.40
2018-03-31T17:46:02.332Z,3.23
2018-03-31T17:48:29.295Z,3.00
2018-03-31T17:50:56.188Z,3.43
2018-03-31T17:53:23.103Z,3.30
2018-03-31T17:55:49.998Z,3.70
2018-03-31T17:58:16.915Z,3.00
2018-03-31T18:00:43.798Z,2.87
2018-03-31T18:03:11.344Z,4.00
2018-03-31T18:05:38.233Z,3.60
2018-03-31T18:08:05.147Z,4.10
2018-03-31T18:10:32.037Z,4.13
2018-03-31T18:12:58.963Z,4.30
2018-03-31T18:15:25.861Z,6.00
2018-03-31T18:17:52.771Z,6.90
2018-03-31T18:20:19.667Z,8.80
2018-03-31T18:22:46.599Z,9.87
2018-03-31T18:25:13.487Z,10.50
2018-03-31T18:27:40.408Z,6.30
2018-03-31T18:30:07.289Z,4.60
2018-03-31T18:32:34.200Z,5.57
2018-03-31T18:35:01.083Z,5.50
2018-03-31T18:37:27.964Z,4.43
2018-03-31T18:39:54.878Z,4.30
2018-03-31T18:42:21.768Z,4.60
2018-03-31T18:44:48.675Z,3.63
2018-03-31T18:47:15.558Z,5.00
2018-03-31T18:49:42.470Z,4.90
2018-03-31T18:52:09.360Z,5.90
2018-03-31T18:54:36.272Z,5.27
2018-03-31T18:57:03.186Z,5.70
2018-03-31T18:59:30.102Z,5.50
2018-03-31T19:01:56.987Z,5.87
2018-03-31T19:04:23.892Z,5.40
2018-03-31T19:06:50.770Z,6.40
2018-03-31T19:09:17.699Z,5.60
2018-03-31T19:11:44.593Z,6.77
2018-03-31T19:14:11.510Z,4.70
2018-03-31T19:16:44.192Z,5.70
2018-03-31T19:19:11.096Z,5.93
2018-03-31T19:21:37.990Z,8.20
2018-03-31T19:24:04.908Z,7.20
2018-03-31T19:26:31.806Z,7.97
2018-03-31T19:28:58.727Z,7.27
2018-03-31T19:31:25.617Z,5.50
2018-03-31T19:33:52.538Z,6.10
2018-03-31T19:36:19.427Z,6.60
2018-03-31T19:38:46.347Z,10.47
2018-03-31T19:41:13.247Z,10.70
2018-03-31T19:43:40.188Z,9.00
2018-03-31T19:46:07.074Z,8.83
2018-03-31T19:48:33.996Z,9.23
2018-03-31T19:51:00.893Z,10.60
2018-03-31T19:53:27.812Z,8.73
2018-03-31T19:55:54.703Z,8.63
2018-03-31T19:58:21.623Z,8.40
2018-03-31T20:00:48.536Z,10.57
2018-03-31T20:03:15.462Z,8.27
2018-03-31T20:05:42.346Z,9.13
2018-03-31T20:08:09.236Z,8.20
2018-03-31T20:10:36.158Z,8.20
2018-03-31T20:13:03.061Z,7.80
2018-03-31T20:15:29.978Z,8.30
2018-03-31T20:17:56.861Z,8.97
2018-03-31T20:20:23.791Z,9.20
2018-03-31T20:22:50.674Z,9.77
2018-03-31T20:25:17.592Z,10.90
2018-03-31T20:27:44.474Z,10.23
2018-03-31T20:30:11.391Z,8.57
2018-03-31T20:32:38.290Z,10.00
2018-03-31T20:35:05.230Z,11.93
2018-03-31T20:37:32.123Z,17.47
2018-03-31T20:39:59.096Z,13.93
2018-03-31T20:42:25.963Z,11.50
2018-03-31T20:44:52.882Z,10.77
2018-03-31T20:47:19.769Z,9.33
2018-03-31T20:49:46.706Z,8.87
2018-03-31T20:52:13.599Z,11.10
2018-03-31T20:54:40.522Z,11.20
2018-03-31T20:57:07.411Z,9.40
2018-03-31T20:59:34.326Z,10.60
2018-03-31T21:02:01.223Z,10.80
2018-03-31T21:04:28.145Z,10.10
2018-03-31T21:06:55.047Z,11.60
2018-03-31T21:09:21.970Z,11.20
2018-03-31T21:11:48.875Z,10.00
2018-03-31T21:14:15.789Z,10.80
2018-03-31T21:16:42.691Z,11.50
2018-03-31T21:19:09.613Z,9.10
2018-03-31T21:21:36.502Z,8.27
2018-03-31T21:24:03.427Z,7.43
2018-03-31T21:26:30.305Z,8.60
2018-03-31T21:28:57.197Z,8.90
2018-03-31T21:31:24.106Z,7.23
2018-03-31T21:33:51.012Z,6.83
2018-03-31T21:36:17.928Z,6.77
2018-03-31T21:38:44.821Z,6.50
2018-03-31T21:41:11.745Z,6.87
2018-03-31T21:43:38.622Z,5.73
2018-03-31T21:46:05.617Z,6.20
2018-03-31T21:48:32.511Z,5.40
2018-03-31T21:50:59.435Z,4.73
2018-03-31T21:53:26.319Z,4.23
2018-03-31T21:55:53.245Z,4.03
2018-03-31T21:58:20.138Z,3.90
2018-03-31T22:00:47.052Z,3.33
2018-03-31T22:03:13.966Z,3.87
2018-03-31T22:05:40.878Z,3.33
2018-03-31T22:08:07.772Z,3.37
2018-03-31T22:10:34.697Z,3.33
2018-03-31T22:13:07.327Z,2.97
2018-03-31T22:15:39.965Z,2.53
2018-03-31T22:18:06.850Z,3.27
2018-03-31T22:20:33.758Z,3.30
2018-03-31T22:23:00.648Z,3.30
2018-03-31T22:25:27.553Z,3.20
2018-03-31T22:27:54.437Z,3.43
2018-03-31T22:30:21.350Z,2.60
2018-03-31T22:32:48.243Z,2.83
2018-03-31T22:35:15.160Z,2.93
2018-03-31T22:37:42.045Z,3.10
2018-03-31T22:40:08.966Z,3.43
2018-03-31T22:42:35.848Z,2.83
2018-03-31T22:45:02.760Z,3.03
2018-03-31T22:47:29.647Z,2.60
2018-03-31T22:49:56.562Z,3.40
2018-03-31T22:52:23.451Z,2.90
2018-03-31T22:54:50.386Z,2.90
2018-03-31T22:57:17.275Z,3.17
2018-03-31T22:59:44.153Z,3.10
2018-03-31T23:02:11.066Z,2.93
2018-03-31T23:04:38.182Z,3.10
2018-03-31T23:07:05.317Z,2.47
2018-03-31T23:09:32.410Z,2.53
2018-03-31T23:11:59.567Z,2.90
2018-03-31T23:14:26.658Z,2.40
2018-03-31T23:16:53.775Z,2.67
2018-03-31T23:19:20.863Z,3.00
2018-03-31T23:21:48.011Z,3.00
2018-03-31T23:24:15.103Z,2.70
2018-03-31T23:26:42.233Z,3.50
2018-03-31T23:29:09.318Z,2.50
2018-03-31T23:31:36.443Z,2.80
2018-03-31T23:34:03.562Z,2.60
2018-03-31T23:36:30.684Z,3.03
2018-03-31T23:38:57.562Z,2.43
2018-03-31T23:41:24.474Z,2.90
2018-03-31T23:43:51.355Z,3.43
2018-03-31T23:46:18.263Z,2.70
2018-03-31T23:48:45.146Z,3.40
2018-03-31T23:51:12.060Z,2.40
2018-03-31T23:53:38.937Z,2.30
2018-03-31T23:56:05.855Z,3.00
2018-03-31T23:58:32.788Z,3.00
